Time;durP1;ratioP1;P1;durP2;ratioP2;P2;SDS_P1;SDS_P2;PMS_P1;PMS_P2;Temp;Humidity;BMP_temperature;BMP_pressure;BME280_temperature;BME280_humidity;BME280_pressure;Samples;Min_cycle;Max_cycle;Signal;HPM_P1;HPM_P2
2022/06/25 00:01:13;;;;;;;9.50;4.07;;;;;;;;;;6128475;23;20185;-59
2022/06/25 00:03:40;;;;;;;6.13;3.60;;;;;;;;;;6128104;23;20180;-59
2022/06/25 00:06:08;;;;;;;6.78;3.88;;;;;;;;;;6128550;23;20174;-59
2022/06/25 00:08:37;;;;;;;9.35;4.03;;;;;;;;;;6128498;23;20174;-60
2022/06/25 00:11:05;;;;;;;7.32;4.47;;;;;;;;;;6128443;23;20194;-59
2022/06/25 00:13:33;;;;;;;9.85;3.50;;;;;;;;;;6128308;23;20197;-59
2022/06/25 00:16:01;;;;;;;10.15;4.05;;;;;;;;;;6128527;23;20181;-59
2022/06/25 00:18:27;;;;;;;9.30;4.03;;;;;;;;;;6129036;23;20170;-60
2022/06/25 00:20:54;;;;;;;8.20;3.85;;;;;;;;;;6128069;23;20178;-59
2022/06/25 00:23:22;;;;;;;8.45;3.85;;;;;;;;;;6103708;23;20181;-59
2022/06/25 00:25:49;;;;;;;6.18;3.38;;;;;;;;;;6130461;23;20174;-59
2022/06/25 00:28:15;;;;;;;13.00;4.07;;;;;;;;;;6130390;23;20508;-60
2022/06/25 00:30:43;;;;;;;6.13;3.50;;;;;;;;;;6130362;23;20477;-60
2022/06/25 00:33:09;;;;;;;11.35;3.88;;;;;;;;;;6130920;23;20170;-60
2022/06/25 00:35:36;;;;;;;8.32;3.35;;;;;;;;;;6130379;23;20502;-59
2022/06/25 00:38:04;;;;;;;11.52;3.80;;;;;;;;;;6129986;23;20174;-59
2022/06/25 00:40:31;;;;;;;11.43;3.55;;;;;;;;;;6130293;23;20181;-59
2022/06/25 00:42:58;;;;;;;9.85;3.47;;;;;;;;;;6104524;23;20178;-59
2022/06/25 00:45:25;;;;;;;8.13;3.05;;;;;;;;;;6105242;23;20174;-58
2022/06/25 00:47:52;;;;;;;10.93;3.83;;;;;;;;;;6104519;23;20266;-58
2022/06/25 00:50:19;;;;;;;9.05;3.50;;;;;;;;;;6130556;23;20208;-58
2022/06/25 00:52:49;;;;;;;7.45;3.30;;;;;;;;;;6129816;23;20174;-60
2022/06/25 00:55:19;;;;;;;11.82;3.40;;;;;;;;;;6104660;23;20178;-59
2022/06/25 00:57:47;;;;;;;11.50;3.38;;;;;;;;;;6130868;23;20173;-60
2022/06/25 01:00:15;;;;;;;12.05;3.92;;;;;;;;;;6105559;23;20179;-59
2022/06/25 01:02:42;;;;;;;8.73;3.38;;;;;;;;;;6104603;23;20174;-59
2022/06/25 01:05:12;;;;;;;12.40;3.20;;;;;;;;;;6130138;23;20216;-59
2022/06/25 01:07:41;;;;;;;10.90;3.90;;;;;;;;;;6104620;23;20170;-59
2022/06/25 01:10:08;;;;;;;15.60;3.55;;;;;;;;;;6080756;23;20281;-59
2022/06/25 01:12:35;;;;;;;6.10;3.33;;;;;;;;;;6104678;23;20449;-59
2022/06/25 01:15:17;;;;;;;15.45;3.55;;;;;;;;;;6104309;23;20209;-60
2022/06/25 01:17:50;;;;;;;11.88;3.58;;;;;;;;;;6104717;23;20162;-60
2022/06/25 01:20:23;;;;;;;16.05;4.05;;;;;;;;;;6104939;23;20162;-60
2022/06/25 01:22:50;;;;;;;10.25;3.05;;;;;;;;;;6104066;23;20173;-59
2022/06/25 01:25:17;;;;;;;16.42;4.07;;;;;;;;;;6129589;23;20208;-60
2022/06/25 01:27:46;;;;;;;8.85;3.50;;;;;;;;;;6104417;23;20170;-60
2022/06/25 01:30:14;;;;;;;18.17;3.58;;;;;;;;;;6129617;23;20214;-59
2022/06/25 01:32:41;;;;;;;8.98;3.70;;;;;;;;;;6129459;23;20185;-59
2022/06/25 01:35:09;;;;;;;10.50;3.45;;;;;;;;;;6104151;23;20236;-59
2022/06/25 01:37:36;;;;;;;8.80;3.45;;;;;;;;;;6104242;23;20265;-60
2022/06/25 01:40:04;;;;;;;17.25;3.70;;;;;;;;;;6129540;23;20174;-60
2022/06/25 01:45:17;;;;;;;14.90;4.00;;;;;;;;;;6129560;23;20249;-60
2022/06/25 01:47:44;;;;;;;17.50;3.92;;;;;;;;;;6129445;23;20178;-61
2022/06/25 01:50:12;;;;;;;14.25;4.00;;;;;;;;;;6103762;23;20213;-60
2022/06/25 01:52:46;;;;;;;11.57;3.70;;;;;;;;;;6103888;23;20171;-60
2022/06/25 01:55:14;;;;;;;15.40;4.05;;;;;;;;;;6103678;23;20173;-60
2022/06/25 01:57:42;;;;;;;12.27;3.92;;;;;;;;;;6103943;23;20536;-60
2022/06/25 02:00:19;;;;;;;11.30;4.18;;;;;;;;;;6103866;23;20257;-60
2022/06/25 02:02:52;;;;;;;8.25;3.10;;;;;;;;;;6103601;23;20221;-59
2022/06/25 02:08:08;;;;;;;10.65;4.03;;;;;;;;;;6129347;23;20154;-59
2022/06/25 02:10:36;;;;;;;14.32;3.75;;;;;;;;;;6129126;23;20194;-59
2022/06/25 02:13:03;;;;;;;12.60;3.70;;;;;;;;;;6103812;23;20170;-60
2022/06/25 02:15:35;;;;;;;8.93;3.45;;;;;;;;;;6081122;23;20165;-59
2022/06/25 02:18:04;;;;;;;15.57;3.45;;;;;;;;;;6129267;23;20296;-59
2022/06/25 02:20:31;;;;;;;12.32;3.70;;;;;;;;;;6128697;23;20178;-59
2022/06/25 02:22:58;;;;;;;16.13;3.75;;;;;;;;;;6128687;23;20181;-59
2022/06/25 02:25:26;;;;;;;15.13;4.13;;;;;;;;;;6103552;23;20233;-59
2022/06/25 02:27:53;;;;;;;18.38;4.05;;;;;;;;;;6129006;23;20182;-57
2022/06/25 02:30:20;;;;;;;9.98;3.15;;;;;;;;;;6128964;23;20210;-59
2022/06/25 02:32:47;;;;;;;13.68;3.70;;;;;;;;;;6103779;23;20170;-58
2022/06/25 02:35:15;;;;;;;11.75;3.78;;;;;;;;;;6103747;23;20244;-58
2022/06/25 02:37:42;;;;;;;20.63;4.00;;;;;;;;;;6129960;23;20511;-58
2022/06/25 02:40:13;;;;;;;15.40;3.78;;;;;;;;;;6104379;23;20163;-58
2022/06/25 02:42:42;;;;;;;11.15;3.40;;;;;;;;;;6103425;23;20485;-58
2022/06/25 02:45:11;;;;;;;5.85;3.10;;;;;;;;;;6103449;23;20170;-58
2022/06/25 02:47:44;;;;;;;6.57;3.78;;;;;;;;;;6103318;23;20173;-58
2022/06/25 02:50:12;;;;;;;10.43;3.53;;;;;;;;;;6103410;23;20205;-59
2022/06/25 02:52:40;;;;;;;7.05;3.67;;;;;;;;;;6104265;23;20181;-58
2022/06/25 02:55:13;;;;;;;10.35;3.60;;;;;;;;;;6103674;23;20583;-58
2022/06/25 03:00:40;;;;;;;10.25;3.53;;;;;;;;;;6103317;23;20170;-58
2022/06/25 03:03:09;;;;;;;15.68;3.70;;;;;;;;;;6103239;23;20623;-59
2022/06/25 03:05:37;;;;;;;8.95;3.53;;;;;;;;;;6103869;23;20204;-59
2022/06/25 03:08:05;;;;;;;14.43;3.60;;;;;;;;;;6128903;23;20177;-59
2022/06/25 03:10:32;;;;;;;11.82;3.55;;;;;;;;;;6103357;23;20220;-59
2022/06/25 03:12:59;;;;;;;7.85;3.67;;;;;;;;;;6103471;23;20181;-58
2022/06/25 03:15:28;;;;;;;9.57;3.53;;;;;;;;;;6102827;23;20181;-58
2022/06/25 03:17:56;;;;;;;8.68;3.72;;;;;;;;;;6103857;23;20181;-58
2022/06/25 03:20:41;;;;;;;7.93;4.28;;;;;;;;;;6128790;23;20632;-59
2022/06/25 03:23:10;;;;;;;8.18;3.78;;;;;;;;;;6102940;23;20174;-58
2022/06/25 03:25:39;;;;;;;6.50;3.60;;;;;;;;;;6103867;23;20170;-59
2022/06/25 03:28:07;;;;;;;12.73;3.83;;;;;;;;;;6103634;23;20173;-59
2022/06/25 03:30:36;;;;;;;11.57;3.90;;;;;;;;;;6103148;23;20501;-60
2022/06/25 03:33:05;;;;;;;12.80;3.90;;;;;;;;;;6127302;23;20185;-59
2022/06/25 03:35:38;;;;;;;5.05;3.65;;;;;;;;;;6103354;23;20163;-59
2022/06/25 03:38:25;;;;;;;8.40;3.90;;;;;;;;;;6128718;23;20245;-58
2022/06/25 03:41:32;;;;;;;10.68;3.67;;;;;;;;;;6103590;23;20625;-59
2022/06/25 03:43:44;;;;;;;11.73;3.75;;;;;;;;;;6102771;23;20606;-58
2022/06/25 03:46:12;;;;;;;8.18;3.95;;;;;;;;;;6103022;23;20174;-57
2022/06/25 03:48:39;;;;;;;6.80;4.00;;;;;;;;;;6093989;23;20210;-58
2022/06/25 03:51:17;;;;;;;4.60;3.60;;;;;;;;;;6074203;23;20193;-58
2022/06/25 03:53:44;;;;;;;9.88;3.78;;;;;;;;;;6075392;23;20174;-57
2022/06/25 03:56:12;;;;;;;6.40;3.50;;;;;;;;;;6074279;23;20208;-57
2022/06/25 03:58:42;;;;;;;6.93;3.85;;;;;;;;;;6073671;23;20171;-58
2022/06/25 04:01:09;;;;;;;10.00;3.70;;;;;;;;;;6039564;23;20180;-58
2022/06/25 04:03:36;;;;;;;6.85;4.32;;;;;;;;;;6016141;23;20183;-58
2022/06/25 04:06:09;;;;;;;8.35;4.43;;;;;;;;;;6040209;23;20176;-58
2022/06/25 04:08:47;;;;;;;8.40;3.90;;;;;;;;;;6039674;23;20164;-58
2022/06/25 04:11:16;;;;;;;9.00;4.30;;;;;;;;;;6038140;23;20207;-58
2022/06/25 04:13:49;;;;;;;6.28;4.05;;;;;;;;;;6014556;23;20164;-59
2022/06/25 04:16:16;;;;;;;7.65;3.67;;;;;;;;;;6014277;23;20269;-57
2022/06/25 04:18:45;;;;;;;8.07;3.90;;;;;;;;;;6013893;23;20175;-60
2022/06/25 04:21:13;;;;;;;5.53;3.60;;;;;;;;;;6037727;23;20186;-61
2022/06/25 04:23:44;;;;;;;10.75;3.92;;;;;;;;;;6014507;23;20172;-60
2022/06/25 04:26:14;;;;;;;9.80;3.97;;;;;;;;;;6045201;23;20496;-59
2022/06/25 04:31:47;;;;;;;6.20;4.00;;;;;;;;;;6056899;23;20256;-60
2022/06/25 04:34:28;;;;;;;9.13;4.57;;;;;;;;;;6071754;23;20163;-60
2022/06/25 04:36:55;;;;;;;10.38;3.72;;;;;;;;;;6072772;23;20210;-58
2022/06/25 04:39:25;;;;;;;4.65;3.97;;;;;;;;;;6072762;23;20194;-60
2022/06/25 04:41:52;;;;;;;5.45;3.75;;;;;;;;;;6097292;23;20183;-59
2022/06/25 04:44:22;;;;;;;5.70;3.67;;;;;;;;;;6060721;23;20475;-58
2022/06/25 04:46:50;;;;;;;5.95;3.60;;;;;;;;;;6071710;23;20199;-60
2022/06/25 04:49:23;;;;;;;5.57;3.50;;;;;;;;;;6088871;23;20210;-60
2022/06/25 04:51:50;;;;;;;4.43;3.40;;;;;;;;;;6100748;23;20389;-60
2022/06/25 04:54:24;;;;;;;7.05;3.67;;;;;;;;;;6099972;23;20205;-62
2022/06/25 04:56:57;;;;;;;7.22;3.78;;;;;;;;;;6100148;23;20204;-62
2022/06/25 04:59:25;;;;;;;4.65;3.38;;;;;;;;;;6099276;23;20525;-61
2022/06/25 05:01:54;;;;;;;5.35;3.35;;;;;;;;;;6126517;23;20201;-61
2022/06/25 05:04:31;;;;;;;4.60;3.50;;;;;;;;;;6101755;23;20197;-61
2022/06/25 05:06:58;;;;;;;6.68;3.50;;;;;;;;;;6101935;23;20197;-58
2022/06/25 05:09:26;;;;;;;10.75;3.65;;;;;;;;;;6102596;23;20198;-57
2022/06/25 05:11:53;;;;;;;3.92;3.53;;;;;;;;;;6103673;23;20224;-58
2022/06/25 05:14:21;;;;;;;5.97;3.97;;;;;;;;;;6102551;23;20197;-59
2022/06/25 05:16:47;;;;;;;6.32;3.78;;;;;;;;;;6129218;23;20205;-58
2022/06/25 05:19:16;;;;;;;5.22;3.30;;;;;;;;;;6103073;23;20206;-58
2022/06/25 05:21:43;;;;;;;6.88;3.22;;;;;;;;;;6103270;23;20681;-58
2022/06/25 05:24:11;;;;;;;6.88;3.40;;;;;;;;;;6102829;23;20198;-58
2022/06/25 05:26:38;;;;;;;4.40;2.95;;;;;;;;;;6103805;23;20190;-58
2022/06/25 05:29:05;;;;;;;6.50;3.33;;;;;;;;;;6102626;23;20293;-58
2022/06/25 05:31:32;;;;;;;5.72;3.40;;;;;;;;;;6102212;23;20256;-58
2022/06/25 05:34:00;;;;;;;6.60;3.22;;;;;;;;;;6102961;23;20198;-57
2022/06/25 05:36:27;;;;;;;8.40;3.33;;;;;;;;;;6103168;23;20217;-57
2022/06/25 05:38:54;;;;;;;8.85;3.15;;;;;;;;;;6128640;23;20209;-59
2022/06/25 05:41:22;;;;;;;6.78;3.08;;;;;;;;;;6102540;23;20198;-59
2022/06/25 05:43:49;;;;;;;5.53;3.03;;;;;;;;;;6128193;23;20198;-58
2022/06/25 05:46:15;;;;;;;4.25;3.20;;;;;;;;;;6127804;23;20202;-58
2022/06/25 05:48:43;;;;;;;7.50;3.00;;;;;;;;;;6128641;23;20222;-58
2022/06/25 05:51:10;;;;;;;7.00;3.33;;;;;;;;;;6127882;23;20204;-60
2022/06/25 05:53:44;;;;;;;5.63;3.08;;;;;;;;;;6128804;23;20202;-60
2022/06/25 05:56:11;;;;;;;30.77;3.97;;;;;;;;;;6127657;23;20197;-61
2022/06/25 05:58:38;;;;;;;6.15;2.65;;;;;;;;;;6128189;23;20194;-61
2022/06/25 06:01:05;;;;;;;3.15;2.78;;;;;;;;;;6127779;23;20202;-61
2022/06/25 06:03:32;;;;;;;6.70;2.80;;;;;;;;;;6126377;23;20201;-62
2022/06/25 06:05:59;;;;;;;9.45;3.33;;;;;;;;;;6127232;23;20205;-60
2022/06/25 06:08:27;;;;;;;4.53;3.08;;;;;;;;;;6128601;23;20198;-58
2022/06/25 06:10:54;;;;;;;3.70;2.58;;;;;;;;;;6127956;23;20198;-54
2022/06/25 06:13:21;;;;;;;14.38;3.15;;;;;;;;;;6127857;23;20221;-49
2022/06/25 06:15:48;;;;;;;4.15;2.53;;;;;;;;;;6127964;23;20265;-48
2022/06/25 06:18:15;;;;;;;7.32;2.20;;;;;;;;;;6128277;23;20217;-46
2022/06/25 06:20:42;;;;;;;5.75;3.33;;;;;;;;;;6127397;23;20206;-47
2022/06/25 06:23:10;;;;;;;5.22;2.78;;;;;;;;;;6128193;23;20198;-49
2022/06/25 06:25:37;;;;;;;2.80;2.30;;;;;;;;;;6128359;23;20297;-48
2022/06/25 06:28:04;;;;;;;5.38;2.33;;;;;;;;;;6127064;23;20268;-47
2022/06/25 06:30:31;;;;;;;3.30;2.25;;;;;;;;;;6127889;23;20198;-48
2022/06/25 06:33:03;;;;;;;5.00;2.47;;;;;;;;;;6127469;23;20233;-50
2022/06/25 06:35:30;;;;;;;4.68;2.03;;;;;;;;;;6128327;23;20210;-48
2022/06/25 06:37:57;;;;;;;4.38;2.13;;;;;;;;;;6127307;23;20508;-48
2022/06/25 06:40:24;;;;;;;7.45;2.42;;;;;;;;;;6128175;23;20228;-46
2022/06/25 06:42:51;;;;;;;3.47;2.28;;;;;;;;;;6127227;23;20265;-47
2022/06/25 06:45:18;;;;;;;2.10;1.90;;;;;;;;;;6127564;23;20205;-47
2022/06/25 06:47:45;;;;;;;3.00;2.10;;;;;;;;;;6127706;23;20206;-46
2022/06/25 06:50:12;;;;;;;4.10;1.90;;;;;;;;;;6127433;23;20245;-48
2022/06/25 06:52:39;;;;;;;12.45;2.05;;;;;;;;;;6126370;23;20213;-49
2022/06/25 06:55:07;;;;;;;4.60;1.85;;;;;;;;;;6127883;23;20173;-47
2022/06/25 06:57:34;;;;;;;4.25;1.70;;;;;;;;;;6128688;23;20181;-47
2022/06/25 07:00:09;;;;;;;3.05;1.88;;;;;;;;;;6128624;23;20153;-47
2022/06/25 07:02:36;;;;;;;3.08;2.00;;;;;;;;;;6128041;23;20198;-46
2022/06/25 07:05:04;;;;;;;5.97;1.83;;;;;;;;;;6128356;23;20639;-47
2022/06/25 07:07:31;;;;;;;4.07;1.73;;;;;;;;;;6127501;23;20174;-49
2022/06/25 07:09:58;;;;;;;11.25;2.40;;;;;;;;;;6128173;23;20506;-48
2022/06/25 07:12:25;;;;;;;4.85;1.73;;;;;;;;;;6128096;23;20621;-52
2022/06/25 07:14:53;;;;;;;9.02;2.22;;;;;;;;;;6126461;23;20178;-46
2022/06/25 07:17:19;;;;;;;10.48;2.35;;;;;;;;;;6126059;23;20182;-46
2022/06/25 07:19:46;;;;;;;5.97;2.22;;;;;;;;;;6126291;23;20473;-46
2022/06/25 07:22:14;;;;;;;18.88;4.55;;;;;;;;;;6125937;23;20684;-47
2022/06/25 07:24:41;;;;;;;5.20;2.47;;;;;;;;;;6125903;23;20193;-47
2022/06/25 07:27:08;;;;;;;3.58;1.40;;;;;;;;;;6126325;23;20656;-47
2022/06/25 07:29:35;;;;;;;7.65;2.83;;;;;;;;;;6127178;23;20190;-47
2022/06/25 07:32:02;;;;;;;8.60;2.55;;;;;;;;;;6127283;23;20221;-46
2022/06/25 07:34:29;;;;;;;1.98;1.45;;;;;;;;;;6127447;23;20174;-48
2022/06/25 07:36:57;;;;;;;5.53;1.48;;;;;;;;;;6127315;23;20605;-47
2022/06/25 07:39:24;;;;;;;4.25;2.22;;;;;;;;;;6127213;23;20177;-49
2022/06/25 07:41:51;;;;;;;4.03;1.40;;;;;;;;;;6127361;23;20170;-48
2022/06/25 07:44:18;;;;;;;4.20;1.45;;;;;;;;;;6126822;23;20605;-48
2022/06/25 07:46:45;;;;;;;4.70;1.58;;;;;;;;;;6126831;23;20539;-49
2022/06/25 07:49:13;;;;;;;6.13;1.45;;;;;;;;;;6128386;23;20661;-53
2022/06/25 07:54:30;;;;;;;3.50;1.38;;;;;;;;;;6102482;23;20636;-56
2022/06/25 07:56:57;;;;;;;1.42;1.30;;;;;;;;;;6127545;23;20181;-55
2022/06/25 07:59:24;;;;;;;3.60;1.30;;;;;;;;;;6127298;23;20174;-55
2022/06/25 08:01:51;;;;;;;2.25;1.58;;;;;;;;;;6128162;23;20185;-51
2022/06/25 08:04:18;;;;;;;4.85;1.55;;;;;;;;;;6128169;23;20185;-56
2022/06/25 08:06:46;;;;;;;3.95;1.52;;;;;;;;;;6123022;23;20627;-51
2022/06/25 08:09:13;;;;;;;3.22;1.70;;;;;;;;;;6126468;23;20174;-49
2022/06/25 08:11:40;;;;;;;4.80;1.70;;;;;;;;;;6125739;23;20224;-59
2022/06/25 08:14:07;;;;;;;2.80;1.42;;;;;;;;;;6126037;23;20233;-55
2022/06/25 08:16:35;;;;;;;3.40;1.60;;;;;;;;;;6126149;23;20460;-55
2022/06/25 08:19:02;;;;;;;4.45;1.42;;;;;;;;;;6126436;23;20242;-54
2022/06/25 08:21:29;;;;;;;3.50;1.70;;;;;;;;;;6125958;23;20196;-49
2022/06/25 08:23:56;;;;;;;3.40;1.73;;;;;;;;;;6126080;23;20174;-53
2022/06/25 08:26:24;;;;;;;7.57;2.33;;;;;;;;;;6126080;23;20249;-53
2022/06/25 08:28:50;;;;;;;22.20;3.55;;;;;;;;;;6126864;23;20173;-48
2022/06/25 08:31:18;;;;;;;5.85;2.20;;;;;;;;;;6127028;23;20202;-52
2022/06/25 08:33:45;;;;;;;7.85;1.88;;;;;;;;;;6127447;23;20189;-47
2022/06/25 08:36:12;;;;;;;4.80;1.77;;;;;;;;;;6128182;23;20181;-53
2022/06/25 08:38:39;;;;;;;3.17;2.13;;;;;;;;;;6128247;23;20170;-55
2022/06/25 08:41:06;;;;;;;5.75;2.00;;;;;;;;;;6128131;23;20241;-47
2022/06/25 08:43:33;;;;;;;6.68;2.15;;;;;;;;;;6127151;23;20177;-52
2022/06/25 08:46:01;;;;;;;5.90;1.58;;;;;;;;;;6129287;23;20170;-46
2022/06/25 08:48:33;;;;;;;7.05;1.80;;;;;;;;;;6128716;23;20271;-58
2022/06/25 08:51:01;;;;;;;5.65;1.90;;;;;;;;;;6128677;23;20170;-42
2022/06/25 08:53:33;;;;;;;2.90;1.90;;;;;;;;;;6128666;23;20268;-45
2022/06/25 08:56:01;;;;;;;3.22;1.45;;;;;;;;;;6128728;23;20158;-47
2022/06/25 08:58:28;;;;;;;2.30;1.95;;;;;;;;;;6129547;23;20170;-49
2022/06/25 09:00:55;;;;;;;6.70;3.05;;;;;;;;;;6129922;23;20256;-45
2022/06/25 09:03:23;;;;;;;5.45;1.70;;;;;;;;;;6129503;23;20485;-54
2022/06/25 09:05:50;;;;;;;5.90;1.88;;;;;;;;;;6128742;23;20204;-49
2022/06/25 09:08:17;;;;;;;4.50;1.50;;;;;;;;;;6128619;23;20174;-50
2022/06/25 09:10:46;;;;;;;4.47;2.00;;;;;;;;;;6127641;23;20178;-49
2022/06/25 09:13:14;;;;;;;4.45;1.40;;;;;;;;;;6129233;23;20198;-52
2022/06/25 09:15:43;;;;;;;2.47;1.73;;;;;;;;;;6129290;23;20178;-49
2022/06/25 09:18:16;;;;;;;3.42;1.67;;;;;;;;;;6128293;23;20612;-50
2022/06/25 09:21:03;;;;;;;2.60;2.00;;;;;;;;;;6129110;23;20225;-51
2022/06/25 09:23:35;;;;;;;4.32;1.70;;;;;;;;;;6127520;23;20162;-49
2022/06/25 09:26:07;;;;;;;2.58;1.70;;;;;;;;;;6129227;23;20187;-53
2022/06/25 09:28:36;;;;;;;4.63;1.67;;;;;;;;;;6127607;23;20158;-49
2022/06/25 09:31:03;;;;;;;2.95;1.70;;;;;;;;;;6126254;23;20193;-51
2022/06/25 09:33:32;;;;;;;1.88;1.67;;;;;;;;;;6127960;23;20201;-50
2022/06/25 09:35:59;;;;;;;4.22;1.58;;;;;;;;;;6126893;23;20226;-50
2022/06/25 09:38:27;;;;;;;3.83;1.67;;;;;;;;;;6128664;23;20174;-52
2022/06/25 09:40:58;;;;;;;8.88;1.98;;;;;;;;;;6128016;23;20198;-54
2022/06/25 09:43:27;;;;;;;2.38;1.73;;;;;;;;;;6127162;23;20308;-46
2022/06/25 09:46:03;;;;;;;3.40;1.67;;;;;;;;;;6127679;23;20185;-48
2022/06/25 09:48:33;;;;;;;6.03;1.80;;;;;;;;;;6126444;23;20724;-45
2022/06/25 09:51:10;;;;;;;1.88;1.65;;;;;;;;;;6126658;23;20173;-49
2022/06/25 09:53:48;;;;;;;2.38;1.73;;;;;;;;;;6127118;23;20193;-52
2022/06/25 09:56:21;;;;;;;4.00;1.60;;;;;;;;;;6127268;23;20189;-50
2022/06/25 09:58:49;;;;;;;2.90;1.90;;;;;;;;;;6127705;23;20177;-54
2022/06/25 10:01:20;;;;;;;4.03;2.00;;;;;;;;;;6127521;23;20189;-55
2022/06/25 10:03:47;;;;;;;4.88;1.70;;;;;;;;;;6126961;23;20162;-50
2022/06/25 10:06:24;;;;;;;3.17;1.73;;;;;;;;;;6128739;23;20189;-55
2022/06/25 10:08:56;;;;;;;3.08;1.90;;;;;;;;;;6103291;23;20159;-56
2022/06/25 10:11:25;;;;;;;2.75;1.63;;;;;;;;;;6128304;23;20680;-55
2022/06/25 10:13:53;;;;;;;3.72;1.48;;;;;;;;;;6128954;23;20194;-55
2022/06/25 10:16:21;;;;;;;1.75;1.63;;;;;;;;;;6128939;23;20336;-56
2022/06/25 10:18:49;;;;;;;1.98;1.80;;;;;;;;;;6128569;23;20609;-55
2022/06/25 10:21:17;;;;;;;2.45;1.70;;;;;;;;;;6128925;23;20170;-57
2022/06/25 10:23:46;;;;;;;4.00;1.75;;;;;;;;;;6128812;23;20194;-52
2022/06/25 10:26:13;;;;;;;1.95;1.70;;;;;;;;;;6103549;23;20177;-55
2022/06/25 10:28:41;;;;;;;2.58;2.10;;;;;;;;;;6103651;23;20174;-54
2022/06/25 10:31:13;;;;;;;6.85;1.60;;;;;;;;;;6128736;23;20513;-56
2022/06/25 10:34:02;;;;;;;2.58;1.90;;;;;;;;;;6128284;23;20193;-53
2022/06/25 10:36:46;;;;;;;3.63;1.67;;;;;;;;;;6128624;23;20162;-54
2022/06/25 10:39:22;;;;;;;3.38;1.63;;;;;;;;;;6128729;23;20162;-55
2022/06/25 10:45:21;;;;;;;4.78;1.70;;;;;;;;;;6128707;23;20225;-57
2022/06/25 10:47:52;;;;;;;7.25;1.58;;;;;;;;;;6118217;23;20669;-55
2022/06/25 10:50:20;;;;;;;1.60;1.50;;;;;;;;;;6128570;23;20194;-55
2022/06/25 10:53:02;;;;;;;2.10;1.88;;;;;;;;;;6128350;23;20194;-52
2022/06/25 10:55:32;;;;;;;2.03;1.77;;;;;;;;;;6128432;23;20159;-55
2022/06/25 10:58:14;;;;;;;2.15;1.70;;;;;;;;;;6127668;23;20189;-53
2022/06/25 11:01:01;;;;;;;3.97;1.80;;;;;;;;;;6129300;23;20166;-54
2022/06/25 11:03:29;;;;;;;3.08;1.60;;;;;;;;;;6128614;23;20193;-55
2022/06/25 11:06:16;;;;;;;2.05;1.80;;;;;;;;;;6128461;23;20171;-55
2022/06/25 11:08:44;;;;;;;2.25;1.98;;;;;;;;;;6103757;23;20184;-55
2022/06/25 11:11:12;;;;;;;2.00;1.67;;;;;;;;;;6128742;23;20193;-55
2022/06/25 11:13:42;;;;;;;2.08;1.52;;;;;;;;;;6103114;23;20275;-55
2022/06/25 11:16:16;;;;;;;1.65;1.48;;;;;;;;;;6128586;23;20177;-56
2022/06/25 11:18:56;;;;;;;3.08;1.65;;;;;;;;;;6128923;23;20440;-53
2022/06/25 11:21:30;;;;;;;3.67;1.70;;;;;;;;;;6128710;23;20158;-53
2022/06/25 11:24:15;;;;;;;1.60;1.30;;;;;;;;;;6128678;23;20221;-55
2022/06/25 11:29:39;;;;;;;3.38;1.58;;;;;;;;;;6126706;23;20158;-49
2022/06/25 11:32:07;;;;;;;1.67;1.40;;;;;;;;;;6126601;23;20178;-57
2022/06/25 11:34:35;;;;;;;4.03;1.65;;;;;;;;;;6127249;23;20186;-58
2022/06/25 11:37:08;;;;;;;2.60;1.30;;;;;;;;;;6128759;23;20176;-58
2022/06/25 11:39:36;;;;;;;6.05;1.77;;;;;;;;;;6128518;23;20233;-58
2022/06/25 11:42:07;;;;;;;2.03;1.50;;;;;;;;;;6127761;23;20623;-58
2022/06/25 11:44:46;;;;;;;4.53;1.60;;;;;;;;;;6128080;23;20170;-58
2022/06/25 11:47:17;;;;;;;2.45;1.60;;;;;;;;;;6128359;23;20158;-57
2022/06/25 11:49:45;;;;;;;1.60;1.50;;;;;;;;;;6123901;23;20801;-58
2022/06/25 11:52:13;;;;;;;1.52;1.42;;;;;;;;;;6127212;23;20202;-57
2022/06/25 11:54:42;;;;;;;1.58;1.40;;;;;;;;;;6127234;23;20724;-58
2022/06/25 11:57:16;;;;;;;1.75;1.60;;;;;;;;;;6126399;23;20205;-57
2022/06/25 11:59:43;;;;;;;3.97;1.77;;;;;;;;;;6127282;23;20225;-57
2022/06/25 12:02:11;;;;;;;3.13;1.70;;;;;;;;;;6126837;23;20268;-59
2022/06/25 12:05:05;;;;;;;2.97;1.90;;;;;;;;;;6127091;23;20256;-56
2022/06/25 12:07:33;;;;;;;2.55;1.60;;;;;;;;;;6122964;23;20194;-57
2022/06/25 12:10:05;;;;;;;2.28;1.58;;;;;;;;;;6102235;23;20661;-56
2022/06/25 12:12:34;;;;;;;2.50;1.65;;;;;;;;;;6101742;23;20202;-58
2022/06/25 12:15:01;;;;;;;1.65;1.30;;;;;;;;;;6102363;23;20272;-58
2022/06/25 12:17:33;;;;;;;1.98;1.40;;;;;;;;;;6126773;23;20280;-58
2022/06/25 12:20:11;;;;;;;2.05;1.33;;;;;;;;;;6128384;23;20202;-58
2022/06/25 12:22:49;;;;;;;4.03;1.50;;;;;;;;;;6128557;23;20267;-57
2022/06/25 12:25:30;;;;;;;1.30;1.20;;;;;;;;;;6129438;23;20652;-58
2022/06/25 12:27:58;;;;;;;6.38;1.63;;;;;;;;;;6128873;23;20205;-57
2022/06/25 12:30:30;;;;;;;1.83;1.33;;;;;;;;;;6129500;23;20198;-58
2022/06/25 12:33:14;;;;;;;4.03;1.73;;;;;;;;;;6128613;23;20209;-57
2022/06/25 12:35:44;;;;;;;1.55;1.40;;;;;;;;;;6128661;23;20194;-56
2022/06/25 12:38:13;;;;;;;4.45;1.55;;;;;;;;;;6128745;23;20204;-58
2022/06/25 12:40:44;;;;;;;6.55;1.60;;;;;;;;;;6129232;23;20277;-54
2022/06/25 12:43:13;;;;;;;2.33;1.33;;;;;;;;;;6128733;23;20197;-54
2022/06/25 12:45:43;;;;;;;4.22;1.45;;;;;;;;;;6128637;23;20542;-53
2022/06/25 12:48:10;;;;;;;3.30;1.45;;;;;;;;;;6128517;23;20209;-51
2022/06/25 12:50:39;;;;;;;4.32;1.30;;;;;;;;;;6130141;23;20202;-56
2022/06/25 12:53:17;;;;;;;1.70;1.40;;;;;;;;;;6128522;23;20568;-49
2022/06/25 12:55:46;;;;;;;3.83;1.30;;;;;;;;;;6104374;23;20511;-47
2022/06/25 12:58:14;;;;;;;4.15;1.40;;;;;;;;;;6129757;23;20174;-45
2022/06/25 13:00:43;;;;;;;2.58;1.42;;;;;;;;;;6130667;23;20252;-46
2022/06/25 13:03:14;;;;;;;1.83;1.42;;;;;;;;;;6130119;23;20170;-51
2022/06/25 13:05:42;;;;;;;2.25;1.48;;;;;;;;;;6127888;23;20241;-56
2022/06/25 13:08:09;;;;;;;2.78;1.30;;;;;;;;;;6129542;23;20589;-56
2022/06/25 13:10:36;;;;;;;6.00;1.52;;;;;;;;;;6130058;23;20193;-51
2022/06/25 13:13:03;;;;;;;6.45;2.10;;;;;;;;;;6130032;23;20205;-57
2022/06/25 13:15:31;;;;;;;1.88;1.23;;;;;;;;;;6130200;23;20173;-49
2022/06/25 13:17:58;;;;;;;3.03;1.60;;;;;;;;;;6130368;23;20170;-44
2022/06/25 13:20:25;;;;;;;8.23;2.35;;;;;;;;;;6129069;23;20174;-50
2022/06/25 13:22:52;;;;;;;3.53;1.85;;;;;;;;;;6122854;23;20206;-49
2022/06/25 13:25:20;;;;;;;2.58;1.67;;;;;;;;;;6127508;23;20198;-48
2022/06/25 13:27:47;;;;;;;7.93;2.13;;;;;;;;;;6126971;23;20217;-48
2022/06/25 13:30:14;;;;;;;3.13;1.40;;;;;;;;;;6127255;23;20202;-46
2022/06/25 13:33:01;;;;;;;5.78;2.90;;;;;;;;;;6129236;23;20560;-49
2022/06/25 13:35:28;;;;;;;3.83;1.45;;;;;;;;;;6103028;23;20197;-50
2022/06/25 13:37:55;;;;;;;2.90;1.60;;;;;;;;;;6128892;23;20252;-50
2022/06/25 13:40:22;;;;;;;4.10;1.70;;;;;;;;;;6129672;23;20179;-54
2022/06/25 13:42:49;;;;;;;3.75;1.30;;;;;;;;;;6129681;23;20248;-52
2022/06/25 13:45:16;;;;;;;4.03;1.10;;;;;;;;;;6129704;23;20261;-52
2022/06/25 13:47:43;;;;;;;4.70;1.60;;;;;;;;;;6129638;23;20189;-54
2022/06/25 13:50:10;;;;;;;5.22;1.55;;;;;;;;;;6128920;23;20245;-51
2022/06/25 13:52:37;;;;;;;1.60;1.30;;;;;;;;;;6128158;23;20170;-56
2022/06/25 13:55:04;;;;;;;1.70;1.52;;;;;;;;;;6128224;23;20630;-52
2022/06/25 13:57:31;;;;;;;4.82;1.67;;;;;;;;;;6127789;23;20190;-51
2022/06/25 14:00:05;;;;;;;3.92;1.77;;;;;;;;;;6128250;23;20162;-56
2022/06/25 14:02:34;;;;;;;6.05;1.80;;;;;;;;;;6128030;23;20213;-56
2022/06/25 14:05:02;;;;;;;2.65;1.40;;;;;;;;;;6127414;23;20180;-54
2022/06/25 14:07:29;;;;;;;4.63;1.50;;;;;;;;;;6127950;23;20173;-58
2022/06/25 14:09:56;;;;;;;2.33;1.40;;;;;;;;;;6127503;23;20602;-55
2022/06/25 14:12:23;;;;;;;2.38;1.58;;;;;;;;;;6128441;23;20201;-55
2022/06/25 14:14:50;;;;;;;1.80;1.55;;;;;;;;;;6103984;23;20205;-56
2022/06/25 14:17:19;;;;;;;1.73;1.40;;;;;;;;;;6128939;23;20170;-56
2022/06/25 14:19:45;;;;;;;3.05;1.40;;;;;;;;;;6128790;23;20185;-56
2022/06/25 14:22:13;;;;;;;1.60;1.30;;;;;;;;;;6127891;23;20184;-57
2022/06/25 14:27:25;;;;;;;4.03;1.50;;;;;;;;;;6127837;23;20170;-57
2022/06/25 14:29:58;;;;;;;8.27;1.80;;;;;;;;;;6127953;23;20159;-56
2022/06/25 14:32:25;;;;;;;5.80;1.80;;;;;;;;;;6128443;23;20182;-57
2022/06/25 14:34:52;;;;;;;4.57;1.77;;;;;;;;;;6129253;23;20278;-58
2022/06/25 14:42:52;;;;;;;11.93;4.30;;;;;;;;;;6127335;23;20198;-57
2022/06/25 14:45:19;;;;;;;4.10;1.90;;;;;;;;;;6128179;23;20277;-56
2022/06/25 14:47:46;;;;;;;3.95;1.40;;;;;;;;;;6127427;23;20197;-57
2022/06/25 14:50:13;;;;;;;5.07;1.92;;;;;;;;;;6127938;23;20217;-58
2022/06/25 14:52:40;;;;;;;5.30;1.90;;;;;;;;;;6127184;23;20204;-56
2022/06/25 14:55:08;;;;;;;5.22;2.10;;;;;;;;;;6127777;23;20209;-57
2022/06/25 14:57:35;;;;;;;2.47;1.60;;;;;;;;;;6127603;23;20198;-57
2022/06/25 15:00:04;;;;;;;2.00;1.60;;;;;;;;;;6127959;23;20198;-57
2022/06/25 15:02:31;;;;;;;2.08;1.60;;;;;;;;;;6127222;23;20193;-57
2022/06/25 15:04:59;;;;;;;3.20;1.77;;;;;;;;;;6127872;23;20248;-57
2022/06/25 15:07:27;;;;;;;3.22;1.65;;;;;;;;;;6127273;23;20303;-56
2022/06/25 15:09:55;;;;;;;2.85;1.60;;;;;;;;;;6128303;23;20202;-56
2022/06/25 15:12:23;;;;;;;3.70;1.48;;;;;;;;;;6127420;23;20194;-56
2022/06/25 15:14:49;;;;;;;4.68;1.83;;;;;;;;;;6127613;23;20210;-49
2022/06/25 15:17:17;;;;;;;4.93;1.55;;;;;;;;;;6127309;23;20202;-48
2022/06/25 15:19:44;;;;;;;4.82;1.83;;;;;;;;;;6127735;23;20202;-53
2022/06/25 15:22:11;;;;;;;3.47;1.50;;;;;;;;;;6127419;23;20194;-49